This is the latest recevied weather packets stored in our database for station/object N7BTW-13. If no packets are shown the sender has not sent any weather packets the latest 10 day(s).
| Time | Temp. | Humidity | Pressure | Rain* | Wind** | Luminosity | Snow |
|---|---|---|---|---|---|---|---|
| 1787712607 | 25° C | 59% | - | 0 mm | - | - | - |
| 1787712008 | 25.56° C | 57% | - | 0 mm | - | - | - |
| 1787711409 | 25.56° C | 56% | - | 0 mm | - | - | - |
| 1787710807 | 26.11° C | 56% | - | 0 mm | - | - | - |
| 1787710206 | 27.22° C | 54% | - | 0 mm | - | - | - |
| 1787709607 | 28.33° C | 48% | - | 0 mm | - | - | - |
| 1787709007 | 30° C | 37% | - | 0 mm | - | - | - |
| 1787708407 | 30.56° C | 39% | - | 0 mm | - | - | - |
| 1787707807 | 30.56° C | 40% | - | 0 mm | - | - | - |
| 1787707207 | 31.11° C | 40% | - | 0 mm | - | - | - |
| 1787706606 | 31.67° C | 39% | - | 0 mm | - | - | - |
| 1787706007 | 32.22° C | 38% | - | 0 mm | - | - | - |
| 1787705407 | 32.78° C | 37% | - | 0 mm | - | - | - |
| 1787704808 | 32.22° C | 37% | - | 0 mm | - | - | - |
| 1787704208 | 32.78° C | 36% | - | 0 mm | - | - | - |
| 1787703606 | 32.78° C | 35% | - | 0 mm | - | - | - |
| 1787703006 | 32.78° C | 35% | - | 0 mm | - | - | - |
| 1787702407 | 33.33° C | 35% | - | 0 mm | - | - | - |
| 1787701807 | 33.33° C | 35% | - | 0 mm | - | - | - |
| 1787701207 | 33.33° C | 34% | - | 0 mm | - | - | - |
| 1787700608 | 33.33° C | 35% | - | 0 mm | - | - | - |
| 1787700008 | 33.33° C | 34% | - | 0 mm | - | - | - |
| 1787699406 | 33.33° C | 34% | - | 0 mm | - | - | - |
| 1787698806 | 33.33° C | 35% | - | 0 mm | - | - | - |
| 1787698207 | 32.78° C | 37% | - | 0 mm | - | - | - |
* Rain latest hour (hover to see other rain measurements)
** Current wind speed in m/s (hover to see current wind gust speed)